Crestline, Alabama
Current Conditions -  °F | °C
As of 4:53 AM on Wednesday 26 Nov 2014 (Local Time) from KBHM Reporting Station
Clear Clear  
Wind Chill: -2°   Ceiling: Unl
Heat Index:   Visibility: 10mi
Dew Point: -2°   Wind: 7mph
Humidity: 78%   Direction: 310°NW
Pressure: 30.13"   Gusts: NA
Location:  33.5082°N, 86.7399°W
Report Text: KBHM 261053Z 31006KT 10SM CLR 02/M02 A3013 RMK AO2 SLP203 T00171017
Loading
Personal Weather Stations






























Interactive Weather Map New forecast layout! Learn more

10-Day Weather Forecast

Advertisements
Track Severe Weather on mobile